Terminal Aerodrome Forecast
Issued by NWS

Current Version | Previous Version | Text Only | Print | Product List | Glossary On
Versions: 1 2 3 4 5 6 7 8 9 10 11 12 13 14 15 16 17 18 19 20 21 22 23 24 25 26 27 28 29 30
000
FTUS41 KOKX 110836 AAA
TAFTEB
TAF AMD
KTEB 110836Z 1109/1212 VRB04KT P6SM BKN050
      TEMPO 1110/1113 6SM -SHRA BR
     FM111300 35005KT P6SM VCSH OVC050
     FM111500 31006KT P6SM SCT070
     FM120100 36010KT P6SM BKN250=

USA.gov is the U.S. government's official web portal to all federal, state and local government web resources and services.